Time;durP1;ratioP1;P1;durP2;ratioP2;P2;SDS_P1;SDS_P2;PMS_P1;PMS_P2;Temp;Humidity;BMP_temperature;BMP_pressure;BME280_temperature;BME280_humidity;BME280_pressure;Samples;Min_cycle;Max_cycle;Signal;HPM_P1;HPM_P2
2021/04/10 00:01:35;;;;;;;11.88;6.45;;;;;;;7.14;45.30;100585.31;5097147;28;20497;-70
2021/04/10 00:04:02;;;;;;;11.55;6.18;;;;;;;7.43;45.44;100648.72;5115634;28;20062;-70
2021/04/10 00:06:27;;;;;;;18.63;6.78;;;;;;;7.44;45.62;100647.78;5079787;28;20024;-71
2021/04/10 00:08:54;;;;;;;13.73;6.65;;;;;;;7.37;45.90;100641.00;5097001;28;20032;-72
2021/04/10 00:11:19;;;;;;;13.25;6.30;;;;;;;7.41;45.71;100644.38;5114865;28;20036;-71
2021/04/10 00:13:45;;;;;;;11.40;6.38;;;;;;;7.28;45.91;100630.75;5096562;28;20478;-72
2021/04/10 00:16:12;;;;;;;12.82;6.00;;;;;;;7.10;46.36;100611.13;5096977;28;20046;-73
2021/04/10 00:18:38;;;;;;;13.10;6.50;;;;;;;7.35;46.31;100640.19;5080011;28;20043;-71
2021/04/10 00:21:04;;;;;;;12.18;6.18;;;;;;;7.25;46.63;100630.88;5116348;28;20084;-71
2021/04/10 00:23:29;;;;;;;12.35;6.78;;;;;;;7.31;47.10;100640.38;5100928;28;20043;-70
2021/04/10 00:25:55;;;;;;;12.02;6.78;;;;;;;7.29;46.62;100628.97;5118446;28;20039;-71
2021/04/10 00:28:20;;;;;;;14.00;7.00;;;;;;;7.06;46.46;100593.63;5082480;28;20038;-71
2021/04/10 00:30:46;;;;;;;13.90;6.95;;;;;;;7.28;46.94;100622.78;5080014;28;20077;-72
2021/04/10 00:33:11;;;;;;;13.48;6.55;;;;;;;6.83;47.15;100565.34;5114549;28;20063;-72
2021/04/10 00:35:37;;;;;;;15.55;6.78;;;;;;;7.26;47.32;100637.06;5096583;28;20035;-73
2021/04/10 00:38:02;;;;;;;11.25;6.40;;;;;;;7.13;47.39;100631.34;5115114;28;20027;-71
2021/04/10 00:40:28;;;;;;;18.80;6.70;;;;;;;7.14;47.66;100633.97;5096023;28;20035;-72
2021/04/10 00:42:53;;;;;;;10.98;6.80;;;;;;;7.17;47.76;100632.97;5079705;28;20032;-73
2021/04/10 00:45:19;;;;;;;14.20;7.05;;;;;;;7.20;47.70;100638.16;5114685;28;20053;-73
2021/04/10 00:47:44;;;;;;;14.35;6.95;;;;;;;6.97;48.42;100620.50;5114632;28;20454;-73
2021/04/10 00:50:11;;;;;;;11.57;6.50;;;;;;;7.03;48.32;100630.00;5114251;28;20084;-73
2021/04/10 00:52:37;;;;;;;13.70;7.15;;;;;;;6.98;48.60;100640.78;5114758;28;20036;-73
2021/04/10 00:55:05;;;;;;;11.45;6.82;;;;;;;6.95;49.02;100640.03;5114328;28;20034;-73
2021/04/10 00:57:31;;;;;;;14.18;6.68;;;;;;;6.91;48.89;100631.34;5113581;28;20024;-72
2021/04/10 00:59:57;;;;;;;14.25;6.40;;;;;;;6.83;49.56;100634.28;5114374;28;20043;-73
2021/04/10 01:02:23;;;;;;;11.27;6.85;;;;;;;6.62;49.41;100611.25;5113661;28;20028;-71
2021/04/10 01:04:48;;;;;;;14.48;7.07;;;;;;;6.54;49.81;100610.69;5114174;28;20042;-72
2021/04/10 01:07:14;;;;;;;12.63;6.78;;;;;;;6.71;49.84;100642.72;5113762;28;20105;-72
2021/04/10 01:09:40;;;;;;;13.88;6.95;;;;;;;6.81;49.52;100637.94;5114106;28;20519;-72
2021/04/10 01:12:23;;;;;;;15.52;6.93;;;;;;;6.79;49.98;100631.81;5114023;28;20032;-72
2021/04/10 01:15:17;;;;;;;14.95;6.65;;;;;;;6.69;50.00;100626.00;5113683;28;20088;-71
2021/04/10 01:17:54;;;;;;;13.35;6.85;;;;;;;6.60;50.31;100632.53;5096877;28;20027;-72
2021/04/10 01:20:29;;;;;;;11.15;6.75;;;;;;;6.52;50.78;100629.28;5113262;28;20090;-72
2021/04/10 01:23:12;;;;;;;13.80;7.13;;;;;;;6.50;50.96;100620.53;5113672;28;20039;-71
2021/04/10 01:25:44;;;;;;;13.38;7.07;;;;;;;6.48;51.18;100616.22;5114185;28;20042;-70
2021/04/10 01:28:31;;;;;;;11.90;6.38;;;;;;;6.47;51.37;100625.09;5113735;28;20119;-71
2021/04/10 01:30:58;;;;;;;15.25;6.60;;;;;;;6.35;51.72;100631.69;5113487;28;20027;-71
2021/04/10 01:33:29;;;;;;;15.02;6.82;;;;;;;6.14;52.16;100606.84;5113109;28;20036;-72
2021/04/10 01:35:59;;;;;;;14.05;6.70;;;;;;;6.19;52.02;100606.72;5096126;28;20035;-70
2021/04/10 01:38:28;;;;;;;13.38;6.55;;;;;;;6.25;51.94;100620.56;5113324;28;20088;-70
2021/04/10 01:40:57;;;;;;;14.98;7.13;;;;;;;6.08;52.12;100591.22;5113663;28;20110;-69
2021/04/10 01:43:23;;;;;;;13.27;7.03;;;;;;;6.14;52.24;100616.59;5113142;28;20027;-69
2021/04/10 01:45:51;;;;;;;13.20;6.90;;;;;;;6.30;51.75;100621.28;5095214;28;20028;-70
2021/04/10 01:48:18;;;;;;;11.57;6.40;;;;;;;6.40;51.95;100628.91;5113155;28;20092;-72
2021/04/10 01:50:43;;;;;;;10.93;6.00;;;;;;;6.29;52.23;100624.00;5095476;28;20535;-71
2021/04/10 01:53:10;;;;;;;12.10;6.43;;;;;;;5.78;52.59;100563.13;5094855;28;20032;-70
2021/04/10 01:55:38;;;;;;;15.73;6.82;;;;;;;5.99;52.46;100607.44;5112862;28;20038;-70
2021/04/10 01:58:04;;;;;;;13.45;6.60;;;;;;;6.09;52.61;100618.56;5113457;28;20363;-70
2021/04/10 02:00:34;;;;;;;14.63;6.70;;;;;;;5.94;53.13;100612.00;5078126;28;20036;-71
2021/04/10 02:03:00;;;;;;;13.60;6.65;;;;;;;5.96;53.55;100623.41;5113101;28;20467;-71
2021/04/10 02:05:27;;;;;;;12.13;6.30;;;;;;;5.97;53.47;100620.69;5113005;28;20377;-70
2021/04/10 02:07:53;;;;;;;10.60;6.38;;;;;;;5.83;53.54;100591.19;5113249;28;20031;-70
2021/04/10 02:10:24;;;;;;;10.43;6.20;;;;;;;5.65;53.82;100582.09;5080849;28;20471;-73
2021/04/10 02:12:53;;;;;;;11.25;5.97;;;;;;;5.95;54.27;100626.97;5099193;28;20038;-72
2021/04/10 02:15:19;;;;;;;11.95;6.63;;;;;;;5.87;54.12;100623.69;5117095;28;20031;-73
2021/04/10 02:17:45;;;;;;;14.32;5.95;;;;;;;5.85;54.48;100630.84;5099028;28;20028;-72
2021/04/10 02:20:12;;;;;;;11.10;6.13;;;;;;;5.82;54.57;100620.34;5078736;28;20137;-72
2021/04/10 02:22:39;;;;;;;13.13;6.30;;;;;;;5.82;54.51;100602.69;5096601;28;20042;-72
2021/04/10 02:25:06;;;;;;;15.50;6.25;;;;;;;5.90;54.43;100608.63;5097171;28;20481;-72
2021/04/10 02:27:31;;;;;;;10.43;6.30;;;;;;;5.80;53.85;100588.66;5095226;28;20483;-70
2021/04/10 02:29:58;;;;;;;13.85;5.93;;;;;;;5.93;54.58;100615.56;5078578;28;20123;-70
2021/04/10 02:32:30;;;;;;;12.98;6.25;;;;;;;5.88;54.72;100604.25;5096092;28;20536;-70
2021/04/10 02:35:06;;;;;;;13.25;6.32;;;;;;;5.83;54.65;100611.50;5096521;28;20035;-74
2021/04/10 02:37:33;;;;;;;11.90;6.32;;;;;;;5.71;55.24;100610.16;5096382;28;20035;-73
2021/04/10 02:40:00;;;;;;;13.48;6.40;;;;;;;5.74;54.67;100610.88;5095235;28;20024;-72
2021/04/10 02:42:30;;;;;;;14.85;6.40;;;;;;;5.89;54.23;100613.94;5095147;28;20158;-72
2021/04/10 02:44:59;;;;;;;14.20;6.75;;;;;;;5.69;54.63;100593.44;5096668;28;20494;-73
2021/04/10 02:47:28;;;;;;;9.52;5.82;;;;;;;5.77;54.37;100591.38;5096214;28;20035;-71
2021/04/10 02:49:56;;;;;;;11.35;6.05;;;;;;;5.95;53.82;100608.44;5096073;28;20032;-72
2021/04/10 02:53:01;;;;;;;12.75;6.85;;;;;;;5.96;53.73;100607.50;5096033;28;20047;-73
2021/04/10 02:55:34;;;;;;;14.82;6.95;;;;;;;5.96;53.61;100602.22;5014177;28;20033;-74
2021/04/10 02:58:07;;;;;;;14.43;6.68;;;;;;;5.89;53.58;100595.41;5085130;28;20044;-75
2021/04/10 03:00:33;;;;;;;12.27;6.40;;;;;;;5.80;53.81;100603.66;5095719;28;20386;-73
2021/04/10 03:03:02;;;;;;;12.93;6.57;;;;;;;5.70;53.89;100614.56;5095717;28;20036;-70
2021/04/10 03:05:28;;;;;;;12.05;6.50;;;;;;;5.64;54.12;100606.84;5094560;28;20031;-71
2021/04/10 03:07:55;;;;;;;13.05;6.68;;;;;;;5.46;53.81;100567.75;5095044;28;20028;-70
2021/04/10 03:10:22;;;;;;;13.18;6.57;;;;;;;5.53;54.32;100603.69;5077863;28;20118;-71
2021/04/10 03:12:48;;;;;;;13.05;6.25;;;;;;;5.42;54.63;100603.19;5096120;28;20036;-71
2021/04/10 03:15:15;;;;;;;12.55;6.15;;;;;;;5.34;54.94;100599.94;5094738;28;20433;-73
2021/04/10 03:17:41;;;;;;;12.50;6.85;;;;;;;5.31;54.68;100597.41;5094353;28;20360;-74
2021/04/10 03:20:12;;;;;;;12.00;5.72;;;;;;;5.22;54.81;100587.13;5109091;28;20139;-73
2021/04/10 03:22:40;;;;;;;14.68;6.32;;;;;;;5.22;54.95;100601.22;5097645;28;20424;-73
2021/04/10 03:25:06;;;;;;;10.63;5.90;;;;;;;5.16;54.78;100588.16;5116244;28;20055;-73
2021/04/10 03:27:32;;;;;;;12.60;5.97;;;;;;;5.35;54.54;100606.94;5115514;28;20059;-74
2021/04/10 03:29:57;;;;;;;12.25;6.00;;;;;;;5.30;54.37;100591.22;5084943;28;20040;-73
2021/04/10 03:32:24;;;;;;;15.50;6.30;;;;;;;5.27;54.03;100566.66;5121285;28;20063;-74
2021/04/10 03:34:50;;;;;;;14.27;6.35;;;;;;;5.25;54.27;100581.72;5098738;28;20467;-73
2021/04/10 03:37:15;;;;;;;13.82;6.13;;;;;;;5.29;54.12;100607.13;5099138;28;20089;-73
2021/04/10 03:39:41;;;;;;;13.65;6.65;;;;;;;5.31;53.88;100594.75;5116468;28;20036;-73
2021/04/10 03:42:10;;;;;;;14.20;6.35;;;;;;;5.13;54.19;100578.56;5098660;28;20027;-73
2021/04/10 03:44:35;;;;;;;12.00;5.60;;;;;;;4.96;54.62;100587.94;5116240;28;20077;-72
2021/04/10 03:47:01;;;;;;;11.27;6.32;;;;;;;4.98;54.76;100600.19;5098134;28;20470;-71
2021/04/10 03:49:26;;;;;;;10.00;5.53;;;;;;;5.08;54.52;100604.28;5116410;28;20432;-72
2021/04/10 03:51:52;;;;;;;12.70;6.35;;;;;;;5.10;54.54;100605.09;5116774;28;20028;-72
2021/04/10 03:54:17;;;;;;;10.52;5.95;;;;;;;5.03;54.89;100611.50;5097789;28;20108;-72
2021/04/10 03:56:43;;;;;;;13.23;6.20;;;;;;;5.01;54.98;100610.66;5115150;28;20028;-71
2021/04/10 03:59:08;;;;;;;8.95;5.57;;;;;;;4.98;55.04;100610.78;5115271;28;20031;-72
2021/04/10 04:01:34;;;;;;;13.18;6.70;;;;;;;4.94;54.71;100606.50;5096910;28;20109;-72
2021/04/10 04:03:59;;;;;;;10.75;5.50;;;;;;;4.96;54.91;100625.81;5115134;28;20038;-72
2021/04/10 04:06:25;;;;;;;11.73;6.40;;;;;;;4.61;55.23;100563.47;5114679;28;20036;-71
2021/04/10 04:08:50;;;;;;;10.15;5.45;;;;;;;5.04;55.46;100622.94;5080031;28;20035;-74
2021/04/10 04:11:16;;;;;;;13.05;5.95;;;;;;;4.87;55.69;100584.69;5096723;28;20039;-74
2021/04/10 04:13:42;;;;;;;11.85;6.00;;;;;;;4.97;55.44;100603.75;5096727;28;20126;-74
2021/04/10 04:16:07;;;;;;;9.43;5.57;;;;;;;4.92;55.38;100599.53;5114770;28;20036;-74
2021/04/10 04:18:33;;;;;;;14.55;6.15;;;;;;;5.02;55.09;100620.34;5114637;28;20042;-72
2021/04/10 04:20:58;;;;;;;13.18;6.40;;;;;;;4.88;55.22;100604.03;5114998;28;20038;-73
2021/04/10 04:23:23;;;;;;;11.48;6.13;;;;;;;4.93;55.38;100622.44;5096543;28;20027;-71
2021/04/10 04:25:49;;;;;;;11.95;6.18;;;;;;;4.88;55.61;100604.03;5079555;28;20035;-71
2021/04/10 04:28:14;;;;;;;12.98;6.63;;;;;;;4.96;55.89;100622.31;5114722;28;20027;-72
2021/04/10 04:30:40;;;;;;;10.82;5.88;;;;;;;5.06;55.53;100624.63;5114376;28;20027;-72
2021/04/10 04:33:05;;;;;;;13.77;6.15;;;;;;;5.19;54.87;100625.09;5114117;28;20458;-72
2021/04/10 04:35:31;;;;;;;10.45;6.13;;;;;;;5.30;55.04;100619.44;5114490;28;20477;-71
2021/04/10 04:37:56;;;;;;;14.57;6.28;;;;;;;5.63;53.13;100622.78;5096700;28;20035;-71
2021/04/10 04:40:22;;;;;;;14.45;6.50;;;;;;;5.50;54.05;100629.38;5096406;28;20436;-70
2021/04/10 04:42:47;;;;;;;12.90;6.40;;;;;;;5.40;54.03;100605.00;5114102;28;20032;-71
2021/04/10 04:45:13;;;;;;;12.07;5.68;;;;;;;5.56;53.88;100623.88;5114286;28;20047;-70
2021/04/10 04:47:38;;;;;;;14.30;6.30;;;;;;;5.49;53.44;100604.69;5114001;28;20036;-70
2021/04/10 04:50:04;;;;;;;12.57;6.10;;;;;;;5.74;53.25;100637.34;5114496;28;20076;-70
2021/04/10 04:52:30;;;;;;;12.77;6.30;;;;;;;5.65;53.56;100615.63;5095783;28;20121;-71
2021/04/10 04:54:56;;;;;;;11.75;6.15;;;;;;;5.65;52.89;100602.41;5114487;28;20039;-70
2021/04/10 04:57:22;;;;;;;13.77;6.28;;;;;;;5.73;52.66;100613.59;5079241;28;20050;-71
2021/04/10 04:59:47;;;;;;;15.82;7.03;;;;;;;5.96;52.54;100634.00;5095519;28;20028;-72
2021/04/10 05:02:14;;;;;;;13.05;6.78;;;;;;;5.95;52.19;100611.94;5114258;28;20038;-70
2021/04/10 05:04:39;;;;;;;14.32;6.63;;;;;;;6.09;52.52;100631.81;5113615;28;20032;-70
2021/04/10 05:07:05;;;;;;;14.95;6.15;;;;;;;5.86;51.49;100569.00;5114357;28;20030;-70
2021/04/10 05:09:30;;;;;;;13.30;6.43;;;;;;;6.44;50.89;100633.16;5095329;28;20379;-70
2021/04/10 05:11:56;;;;;;;12.35;6.32;;;;;;;6.28;50.71;100598.44;5113781;28;20028;-71
2021/04/10 05:14:21;;;;;;;13.52;6.28;;;;;;;6.65;49.83;100619.09;5114227;28;20043;-71
2021/04/10 05:16:47;;;;;;;12.25;6.00;;;;;;;6.87;49.72;100641.22;5095889;28;20048;-71
2021/04/10 05:19:12;;;;;;;11.30;5.90;;;;;;;6.81;49.58;100617.56;5078759;28;20056;-70
2021/04/10 05:21:38;;;;;;;11.48;5.55;;;;;;;7.18;49.05;100640.00;5095582;28;20515;-71
2021/04/10 05:24:04;;;;;;;9.18;5.18;;;;;;;7.25;49.10;100652.09;5095942;28;20034;-71
2021/04/10 05:26:29;;;;;;;9.43;4.90;;;;;;;7.33;48.90;100657.94;5095246;28;20032;-70
2021/04/10 05:28:55;;;;;;;9.68;5.20;;;;;;;7.37;48.58;100635.69;5095316;28;20084;-70
2021/04/10 05:31:20;;;;;;;10.93;5.22;;;;;;;7.54;48.57;100658.03;5113772;28;20467;-73
2021/04/10 05:33:46;;;;;;;15.07;4.88;;;;;;;7.66;48.25;100657.50;5113135;28;20440;-72
2021/04/10 05:36:11;;;;;;;9.43;5.15;;;;;;;7.64;48.02;100632.81;5113686;28;20111;-71
2021/04/10 05:38:37;;;;;;;12.23;5.18;;;;;;;8.06;47.33;100646.03;5113235;28;20126;-71
2021/04/10 05:41:03;;;;;;;11.13;5.43;;;;;;;7.68;47.29;100584.81;5113480;28;20081;-71
2021/04/10 05:43:29;;;;;;;9.35;4.70;;;;;;;8.07;46.85;100617.69;5113081;28;20035;-73
2021/04/10 05:45:54;;;;;;;10.27;4.53;;;;;;;8.37;46.58;100658.00;5113407;28;20039;-70
2021/04/10 05:48:20;;;;;;;10.40;5.03;;;;;;;8.24;45.91;100592.09;5094863;28;20043;-69
2021/04/10 05:50:45;;;;;;;9.13;4.72;;;;;;;8.61;46.01;100643.63;5095039;28;20078;-70
2021/04/10 05:53:11;;;;;;;9.25;4.43;;;;;;;8.85;45.78;100636.28;5112942;28;20076;-70
2021/04/10 05:55:37;;;;;;;9.45;4.78;;;;;;;8.78;45.56;100629.53;5114461;28;20031;-72
2021/04/10 05:58:02;;;;;;;11.70;4.40;;;;;;;8.85;46.00;100628.31;5078479;28;20039;-73
2021/04/10 06:00:27;;;;;;;8.93;4.15;;;;;;;9.02;45.66;100638.16;5113138;28;20039;-77
2021/04/10 06:02:54;;;;;;;10.50;4.55;;;;;;;9.00;45.00;100606.31;5094947;28;20061;-78
2021/04/10 06:05:21;;;;;;;11.50;4.88;;;;;;;9.23;44.89;100628.28;5113371;28;20057;-75
2021/04/10 06:07:50;;;;;;;9.30;4.88;;;;;;;9.21;45.09;100631.03;5094998;28;20059;-72
2021/04/10 06:10:17;;;;;;;10.30;5.00;;;;;;;9.32;44.99;100635.81;5113280;28;20027;-71
2021/04/10 06:12:43;;;;;;;10.18;4.50;;;;;;;9.33;44.97;100630.41;5113177;28;20085;-74
2021/04/10 06:15:10;;;;;;;10.45;4.53;;;;;;;9.49;44.86;100633.19;5113505;28;20031;-73
2021/04/10 06:17:36;;;;;;;9.30;4.13;;;;;;;9.59;44.54;100626.47;5094931;28;20418;-71
2021/04/10 06:20:05;;;;;;;8.63;4.38;;;;;;;9.95;43.84;100642.41;5094062;28;20070;-71
2021/04/10 06:22:30;;;;;;;9.10;4.45;;;;;;;10.61;42.62;100638.94;5113335;28;20038;-74
2021/04/10 06:24:56;;;;;;;8.80;4.65;;;;;;;10.76;41.72;100592.75;5113115;28;20381;-71
2021/04/10 06:27:21;;;;;;;9.10;3.88;;;;;;;11.59;40.33;100646.81;5095081;28;20659;-71
2021/04/10 06:29:47;;;;;;;10.65;4.20;;;;;;;12.09;39.55;100651.00;5094404;28;20024;-70
2021/04/10 06:32:12;;;;;;;9.40;4.10;;;;;;;12.52;38.54;100646.56;5094712;28;20039;-70
2021/04/10 06:34:38;;;;;;;8.05;4.05;;;;;;;12.70;38.28;100636.53;5090883;28;20068;-70
2021/04/10 06:37:03;;;;;;;8.50;3.97;;;;;;;12.62;38.50;100628.97;5074699;28;20435;-73
2021/04/10 06:39:29;;;;;;;7.53;3.88;;;;;;;12.30;38.47;100566.78;5091928;28;20036;-71
2021/04/10 06:41:55;;;;;;;9.02;4.38;;;;;;;12.38;38.95;100626.00;5093764;28;20482;-72
2021/04/10 06:44:21;;;;;;;6.47;3.90;;;;;;;11.98;39.77;100628.44;5093374;28;20035;-70
2021/04/10 06:46:48;;;;;;;9.55;4.10;;;;;;;11.72;40.50;100634.44;5091276;28;20048;-71
2021/04/10 06:49:15;;;;;;;7.15;3.78;;;;;;;11.97;40.04;100623.19;5092871;28;20063;-71
2021/04/10 06:51:41;;;;;;;6.03;3.53;;;;;;;12.11;39.88;100633.03;5074871;28;20493;-72
2021/04/10 06:54:07;;;;;;;6.97;3.40;;;;;;;12.10;39.87;100626.84;5091237;28;20036;-72
2021/04/10 06:56:38;;;;;;;6.65;3.65;;;;;;;12.15;39.93;100611.34;5077798;28;20085;-71
2021/04/10 06:59:20;;;;;;;6.30;3.40;;;;;;;11.70;40.83;100590.91;5106535;28;20558;-74
2021/04/10 07:01:46;;;;;;;6.47;3.22;;;;;;;11.66;41.40;100616.06;5116002;28;20024;-73
2021/04/10 07:04:12;;;;;;;7.78;3.80;;;;;;;11.56;41.79;100615.75;5098734;28;20043;-74
2021/04/10 07:06:38;;;;;;;8.55;3.47;;;;;;;11.55;42.02;100638.09;5081284;28;20036;-73
2021/04/10 07:09:04;;;;;;;7.85;3.13;;;;;;;11.48;42.32;100639.38;5116713;28;20449;-74
2021/04/10 07:11:29;;;;;;;5.65;2.92;;;;;;;11.30;42.78;100630.63;5098571;28;20497;-74
2021/04/10 07:13:55;;;;;;;8.45;3.45;;;;;;;11.17;43.50;100632.25;5097905;28;20537;-74
2021/04/10 07:16:20;;;;;;;8.93;2.72;;;;;;;11.29;43.57;100638.72;5098487;28;20078;-74
2021/04/10 07:18:46;;;;;;;8.35;3.05;;;;;;;11.39;43.51;100638.13;5097650;28;20085;-74
2021/04/10 07:21:20;;;;;;;7.15;2.67;;;;;;;11.40;43.83;100633.66;5116117;28;20039;-74
2021/04/10 07:23:53;;;;;;;7.00;3.35;;;;;;;11.32;43.83;100607.38;5115700;28;20505;-75
2021/04/10 07:26:40;;;;;;;8.75;2.70;;;;;;;11.30;43.89;100609.28;5116574;28;20069;-74
2021/04/10 07:29:33;;;;;;;8.52;3.03;;;;;;;11.45;43.81;100615.53;5115780;28;20084;-75
2021/04/10 07:32:00;;;;;;;6.68;2.80;;;;;;;11.15;43.99;100583.44;5114569;28;20046;-74
2021/04/10 07:34:28;;;;;;;9.50;3.60;;;;;;;11.27;44.04;100622.78;5116066;28;20103;-75
2021/04/10 07:37:03;;;;;;;7.43;2.85;;;;;;;11.43;44.39;100639.66;5097700;28;20032;-75
2021/04/10 07:39:28;;;;;;;7.47;3.03;;;;;;;11.53;44.18;100636.47;5115814;28;20036;-74
2021/04/10 07:42:04;;;;;;;7.95;3.15;;;;;;;11.34;44.54;100625.97;5097518;28;20466;-74
2021/04/10 07:44:40;;;;;;;6.13;2.70;;;;;;;11.48;44.21;100628.69;5115958;28;20438;-74
2021/04/10 07:47:07;;;;;;;7.60;2.67;;;;;;;11.57;44.41;100646.00;5116199;28;20047;-74
2021/04/10 07:49:33;;;;;;;7.85;2.70;;;;;;;11.44;44.57;100627.16;5115672;28;20031;-74
2021/04/10 07:52:07;;;;;;;5.85;3.28;;;;;;;11.53;44.88;100641.81;5115406;28;20023;-75
2021/04/10 07:54:36;;;;;;;8.10;2.97;;;;;;;11.57;44.50;100644.19;5115864;28;20104;-74
2021/04/10 07:57:04;;;;;;;6.50;2.80;;;;;;;11.38;45.39;100620.34;5115420;28;20042;-75
2021/04/10 07:59:32;;;;;;;8.20;2.90;;;;;;;11.69;44.51;100642.66;5115577;28;20077;-75
2021/04/10 08:02:14;;;;;;;7.22;3.10;;;;;;;11.70;44.53;100639.88;5115003;28;20032;-74
2021/04/10 08:04:42;;;;;;;8.65;3.10;;;;;;;11.54;44.55;100616.81;5096991;28;20429;-75
2021/04/10 08:07:11;;;;;;;8.65;3.38;;;;;;;11.80;44.26;100640.22;5095877;28;20032;-74
2021/04/10 08:09:40;;;;;;;10.20;3.38;;;;;;;11.85;44.60;100643.47;5115096;28;20164;-74
2021/04/10 08:12:09;;;;;;;6.40;3.25;;;;;;;11.73;44.66;100622.78;5115766;28;20122;-74
2021/04/10 08:14:44;;;;;;;10.95;3.58;;;;;;;11.88;44.58;100637.97;5114946;28;20036;-75
2021/04/10 08:17:11;;;;;;;7.72;3.03;;;;;;;11.74;44.77;100613.81;5115014;28;20513;-75
2021/04/10 08:19:38;;;;;;;6.70;3.30;;;;;;;11.99;44.73;100646.19;5114729;28;20043;-75
2021/04/10 08:22:04;;;;;;;9.80;3.72;;;;;;;11.95;44.60;100657.16;5114970;28;20034;-75
2021/04/10 08:24:36;;;;;;;7.68;3.17;;;;;;;11.90;44.76;100652.09;5115323;28;20063;-75
2021/04/10 08:27:05;;;;;;;8.43;3.30;;;;;;;12.01;44.78;100651.44;5114498;28;20458;-75
2021/04/10 08:29:32;;;;;;;7.35;3.20;;;;;;;12.17;44.53;100643.38;5115094;28;20069;-75
2021/04/10 08:31:59;;;;;;;6.28;3.33;;;;;;;12.04;44.49;100627.19;5114643;28;20402;-75
2021/04/10 08:34:26;;;;;;;8.32;3.45;;;;;;;12.12;44.46;100640.09;5114983;28;20032;-75
2021/04/10 08:36:59;;;;;;;7.60;3.25;;;;;;;12.28;44.16;100656.97;5096601;28;20381;-75
2021/04/10 08:39:28;;;;;;;5.68;3.58;;;;;;;11.79;44.22;100589.50;5114593;28;20126;-75
2021/04/10 08:41:59;;;;;;;7.88;3.08;;;;;;;12.15;44.52;100631.88;5114509;28;20039;-75
2021/04/10 08:44:29;;;;;;;7.07;3.38;;;;;;;12.35;44.57;100650.25;5114728;28;20031;-75
2021/04/10 08:46:55;;;;;;;7.63;3.33;;;;;;;12.30;44.16;100644.34;5096198;28;20126;-75
2021/04/10 08:49:21;;;;;;;8.95;3.75;;;;;;;12.31;44.44;100632.69;5096645;28;20056;-75
2021/04/10 08:51:52;;;;;;;9.20;3.80;;;;;;;12.46;43.80;100623.72;5096249;28;20355;-75
2021/04/10 08:54:19;;;;;;;6.75;3.20;;;;;;;12.53;43.89;100635.75;5114525;28;20498;-75
2021/04/10 08:56:49;;;;;;;7.55;3.65;;;;;;;12.20;43.69;100589.69;5114296;28;20027;-74
2021/04/10 08:59:17;;;;;;;6.60;3.53;;;;;;;12.50;43.84;100629.75;5114804;28;20477;-75
2021/04/10 09:01:44;;;;;;;8.00;3.83;;;;;;;12.41;43.68;100612.44;5096461;28;20172;-75
2021/04/10 09:04:11;;;;;;;10.43;3.85;;;;;;;12.66;43.76;100640.34;5079256;28;20035;-74
2021/04/10 09:06:37;;;;;;;8.50;3.85;;;;;;;12.72;43.88;100648.84;5114222;28;20031;-75
2021/04/10 09:09:11;;;;;;;7.50;3.55;;;;;;;12.83;43.72;100649.03;5114026;28;20031;-75
2021/04/10 09:11:43;;;;;;;7.95;3.92;;;;;;;12.79;43.36;100630.59;5114034;28;20103;-74
2021/04/10 09:14:08;;;;;;;8.98;4.55;;;;;;;12.85;42.77;100614.16;5113959;28;20122;-74
2021/04/10 09:16:46;;;;;;;9.02;4.15;;;;;;;12.93;43.00;100635.91;5095811;28;20138;-74
2021/04/10 09:19:15;;;;;;;9.98;3.95;;;;;;;12.83;43.38;100616.03;5113607;28;20122;-74
2021/04/10 09:21:48;;;;;;;8.13;3.72;;;;;;;12.74;43.14;100579.16;5114325;28;20078;-74
2021/04/10 09:24:23;;;;;;;10.10;3.75;;;;;;;13.16;43.21;100634.44;5113819;28;20481;-74
2021/04/10 09:27:08;;;;;;;8.55;4.10;;;;;;;13.23;42.57;100637.63;5094416;28;20115;-74
2021/04/10 09:30:03;;;;;;;8.63;4.00;;;;;;;13.20;42.99;100640.50;5113931;28;20027;-74
2021/04/10 09:32:44;;;;;;;8.15;4.20;;;;;;;13.29;42.69;100634.53;5096048;28;20036;-74
2021/04/10 09:35:18;;;;;;;9.35;3.80;;;;;;;13.29;42.43;100638.06;5095374;28;20031;-75
2021/04/10 09:37:46;;;;;;;9.00;4.10;;;;;;;13.16;42.43;100613.88;5113924;28;20539;-75
2021/04/10 09:40:22;;;;;;;8.88;3.78;;;;;;;13.38;42.31;100633.94;5095712;28;20039;-75
2021/04/10 09:42:49;;;;;;;10.75;4.53;;;;;;;13.41;42.31;100639.09;5113569;28;20024;-76
2021/04/10 09:45:25;;;;;;;9.90;3.90;;;;;;;13.56;42.10;100637.22;5096135;28;20042;-75
2021/04/10 09:48:00;;;;;;;7.63;4.15;;;;;;;13.45;42.14;100637.94;5113753;28;20092;-74
2021/04/10 09:50:26;;;;;;;7.75;4.05;;;;;;;13.40;42.55;100642.72;5113834;28;20123;-74
2021/04/10 09:52:56;;;;;;;9.05;3.88;;;;;;;13.12;42.38;100569.53;5078317;28;20031;-74
2021/04/10 09:55:23;;;;;;;7.55;3.78;;;;;;;13.60;42.10;100628.00;5113474;28;20024;-74
2021/04/10 09:57:53;;;;;;;7.60;3.92;;;;;;;13.66;42.21;100631.16;5113442;28;20474;-75
2021/04/10 10:00:42;;;;;;;8.27;3.78;;;;;;;13.74;41.72;100631.50;5113793;28;20028;-75
2021/04/10 10:03:09;;;;;;;8.73;4.32;;;;;;;13.69;42.02;100633.59;5113425;28;20027;-73
2021/04/10 10:05:40;;;;;;;6.47;3.47;;;;;;;13.55;42.18;100593.50;5113243;28;20031;-74
2021/04/10 10:08:11;;;;;;;7.38;3.90;;;;;;;13.79;42.04;100620.44;5113434;28;20059;-75
2021/04/10 10:10:47;;;;;;;8.02;4.05;;;;;;;13.98;41.63;100618.22;5113528;28;20027;-75
2021/04/10 10:13:18;;;;;;;9.93;3.80;;;;;;;13.73;41.38;100592.25;5113271;28;20044;-74
2021/04/10 10:15:46;;;;;;;10.25;4.30;;;;;;;13.78;41.16;100586.56;5095230;28;20038;-75
2021/04/10 10:18:23;;;;;;;7.55;3.78;;;;;;;13.53;41.27;100543.63;5113481;28;20040;-73
2021/04/10 10:21:06;;;;;;;8.98;4.15;;;;;;;14.08;40.95;100607.72;5094981;28;20478;-74
2021/04/10 10:23:37;;;;;;;6.63;3.65;;;;;;;13.72;40.54;100553.00;5113461;28;20064;-74
2021/04/10 10:26:11;;;;;;;7.97;4.18;;;;;;;14.09;40.91;100609.47;5094970;28;20362;-74
2021/04/10 10:28:38;;;;;;;7.88;3.70;;;;;;;14.16;40.72;100608.06;5113163;28;20035;-74
2021/04/10 10:31:09;;;;;;;9.43;4.20;;;;;;;14.23;40.29;100606.69;5115618;28;20036;-75
2021/04/10 10:33:36;;;;;;;9.98;4.35;;;;;;;14.33;40.06;100602.38;5117350;28;20024;-75
2021/04/10 10:36:02;;;;;;;7.90;3.70;;;;;;;14.36;39.84;100600.44;5098800;28;20035;-73
2021/04/10 10:38:40;;;;;;;15.13;4.10;;;;;;;14.32;38.98;100579.19;5117144;28;20039;-75
2021/04/10 10:41:07;;;;;;;7.13;3.55;;;;;;;14.43;39.49;100593.69;5116911;28;20405;-73
2021/04/10 10:43:33;;;;;;;6.80;3.30;;;;;;;14.36;39.70;100577.16;5116882;28;20031;-75
2021/04/10 10:46:01;;;;;;;7.68;3.85;;;;;;;14.62;39.49;100591.44;5116477;28;20607;-75
2021/04/10 10:48:29;;;;;;;6.72;3.53;;;;;;;14.69;39.18;100597.25;5116718;28;20061;-75
2021/04/10 10:51:02;;;;;;;11.85;3.80;;;;;;;14.70;38.90;100582.84;5098501;28;20359;-73
2021/04/10 10:53:33;;;;;;;8.52;3.58;;;;;;;14.64;39.08;100573.38;5117007;28;20026;-75
2021/04/10 10:56:01;;;;;;;9.80;3.55;;;;;;;14.67;39.14;100578.56;5116654;28;20034;-74
2021/04/10 10:58:35;;;;;;;7.88;3.33;;;;;;;14.58;39.28;100580.06;5098545;28;20458;-73
2021/04/10 11:01:01;;;;;;;6.68;3.40;;;;;;;14.55;38.50;100557.94;5116317;28;20489;-73
2021/04/10 11:03:28;;;;;;;8.05;3.47;;;;;;;14.66;38.69;100570.59;5116693;28;20106;-74
2021/04/10 11:05:54;;;;;;;8.25;3.08;;;;;;;14.72;38.50;100559.41;5116439;28;20038;-76
2021/04/10 11:08:22;;;;;;;6.43;3.33;;;;;;;14.62;38.62;100556.53;5116534;28;20084;-75
2021/04/10 11:10:49;;;;;;;7.82;3.10;;;;;;;14.82;38.36;100561.31;5116291;28;20027;-75
2021/04/10 11:13:17;;;;;;;6.35;3.35;;;;;;;15.05;37.73;100573.06;5116291;28;20432;-75
2021/04/10 11:15:44;;;;;;;9.15;2.97;;;;;;;15.09;37.42;100573.69;5116443;28;20032;-75
2021/04/10 11:18:29;;;;;;;8.23;3.28;;;;;;;15.14;37.58;100566.16;5116213;28;20032;-75
2021/04/10 11:21:18;;;;;;;7.40;3.70;;;;;;;15.19;37.73;100574.75;5097819;28;20056;-76
2021/04/10 11:23:56;;;;;;;7.30;3.20;;;;;;;15.18;37.76;100573.03;5116446;28;20134;-75
2021/04/10 11:26:37;;;;;;;7.93;3.08;;;;;;;15.20;37.99;100571.06;5116403;28;20032;-73
2021/04/10 11:29:26;;;;;;;8.23;3.40;;;;;;;15.30;38.13;100566.72;5115820;28;20081;-73
2021/04/10 11:32:12;;;;;;;7.75;3.05;;;;;;;15.36;37.15;100560.91;5116201;28;20028;-74